KSRQ/SRQ METAR and TAF weather

Enter ICAO airport designator
Station Type Date Time Source
KSRQ METAR 2019/10/22 15:53 UTC NOAA

KSRQ 221553Z 21009KT 10SM CLR 31/26 A3000 RMK AO2 SLP157 T03060256


Station Type Date Time Source
KSRQ Decoded METAR 2019/10/22 15:53 UTC NOAA

SARASOTA/BRADENTON INTERNATIONAL ., FL, United States (KSRQ) 27-24N 082-33W 18M
Oct 22, 2019 - 11:53 AM EDT / 2019.10.22 1553 UTC
Wind: from the SSW (210 degrees) at 10 MPH (9 KT):0
Visibility: 10 mile(s):0
Sky conditions: clear
Temperature: 87.1 F (30.6 C)
Heat index: 99.9 F (37.7 C):1
Dew Point: 78.1 F (25.6 C)
Relative Humidity: 74%
Pressure (altimeter): 30 in. Hg (1015 hPa)
ob: KSRQ 221553Z 21009KT 10SM CLR 31/26 A3000 RMK AO2 SLP157 T03060256
cycle: 16

Station Type Date Time Source
KSRQ TAF 2019/10/22 12:36 UTC NOAA

TAF KSRQ 221135Z 2212/2312 VRB03KT P6SM BKN070
FM221600 22007KT P6SM FEW150
FM222000 26009KT P6SM BKN200
FM230000 31004KT P6SM FEW200

Example: see airport list